Time;durP1;ratioP1;P1;durP2;ratioP2;P2;SDS_P1;SDS_P2;PMS_P1;PMS_P2;Temp;Humidity;BMP_temperature;BMP_pressure;BME280_temperature;BME280_humidity;BME280_pressure;Samples;Min_cycle;Max_cycle;Signal;HPM_P1;HPM_P2
2022/07/29 00:02:23;;;;;;;4.47;1.42;;;17.40;94.60;;;;;;2585900;54;20049;31
2022/07/29 00:05:00;;;;;;;5.40;1.27;;;17.30;94.40;;;;;;2586184;54;20913;31
2022/07/29 00:07:34;;;;;;;5.47;1.60;;;17.30;94.80;;;;;;2585159;54;20943;31
2022/07/29 00:10:09;;;;;;;3.72;1.42;;;17.30;94.90;;;;;;2586144;54;20966;31
2022/07/29 00:12:45;;;;;;;3.20;1.37;;;17.20;95.00;;;;;;2604676;47;20037;31
2022/07/29 00:15:24;;;;;;;;;;;17.20;94.90;;;;;;2586600;54;20744;31
2022/07/29 00:18:00;;;;;;;5.30;1.20;;;17.20;95.10;;;;;;2586063;54;20753;31
2022/07/29 00:20:37;;;;;;;2.70;1.40;;;17.10;95.10;;;;;;2585843;54;20082;31
2022/07/29 00:23:13;;;;;;;8.50;1.35;;;17.10;95.30;;;;;;2604582;47;20836;31
2022/07/29 00:25:46;;;;;;;;;;;17.10;95.30;;;;;;2586188;54;20090;31
2022/07/29 00:28:19;;;;;;;5.03;1.40;;;17.10;95.40;;;;;;2585977;54;19938;31
2022/07/29 00:30:59;;;;;;;3.58;1.10;;;17.10;95.50;;;;;;2586166;54;20273;31
2022/07/29 00:33:32;;;;;;;4.40;1.10;;;17.10;95.70;;;;;;2603919;47;20563;31
2022/07/29 00:36:11;;;;;;;4.28;1.05;;;17.00;95.70;;;;;;2604317;47;19934;31
2022/07/29 00:38:45;;;;;;;3.00;1.20;;;17.00;95.90;;;;;;2585876;54;20101;31
2022/07/29 00:41:18;;;;;;;3.55;1.20;;;16.90;96.00;;;;;;2585565;54;20857;31
2022/07/29 00:43:54;;;;;;;3.85;1.15;;;16.90;95.90;;;;;;2586425;54;20056;31
2022/07/29 00:46:29;;;;;;;;;;;16.90;96.00;;;;;;2587003;54;20944;31
2022/07/29 00:49:02;;;;;;;3.40;1.30;;;16.90;96.30;;;;;;2585898;54;19938;31
2022/07/29 00:51:38;;;;;;;5.35;1.42;;;16.80;96.50;;;;;;2586499;54;20884;31
2022/07/29 00:54:21;;;;;;;4.47;1.00;;;16.80;98.30;;;;;;2586636;54;20905;31
2022/07/29 00:56:56;;;;;;;7.20;1.70;;;16.80;97.00;;;;;;2586655;54;20093;31
2022/07/29 00:59:28;;;;;;;4.95;1.45;;;16.80;97.20;;;;;;2586759;54;21309;31
2022/07/29 01:02:08;;;;;;;6.20;1.77;;;16.80;96.90;;;;;;2605134;46;20853;31
2022/07/29 01:04:41;;;;;;;8.93;1.42;;;16.80;97.20;;;;;;2586486;54;20052;31
2022/07/29 01:07:20;;;;;;;2.47;1.23;;;16.80;97.20;;;;;;2587028;54;20873;31
2022/07/29 01:10:02;;;;;;;3.63;1.17;;;16.70;97.30;;;;;;2586646;54;20859;31
2022/07/29 01:12:37;;;;;;;4.57;1.48;;;16.70;97.20;;;;;;2586732;54;20751;31
2022/07/29 01:15:17;;;;;;;5.97;1.48;;;16.70;97.70;;;;;;2586481;54;21237;31
2022/07/29 01:17:54;;;;;;;3.25;1.58;;;16.60;98.20;;;;;;2598864;46;20096;31
2022/07/29 01:20:32;;;;;;;13.27;1.85;;;16.60;98.10;;;;;;2586495;54;20042;31
2022/07/29 01:23:23;;;;;;;5.30;1.90;;;16.60;98.10;;;;;;2585716;54;20882;31
2022/07/29 01:26:12;;;;;;;4.05;1.30;;;16.60;98.50;;;;;;2586697;54;20731;31
2022/07/29 01:29:04;;;;;;;4.80;1.45;;;16.50;98.90;;;;;;2586510;54;20042;31
2022/07/29 01:31:39;;;;;;;3.95;1.75;;;16.50;98.20;;;;;;2604722;46;20488;31
2022/07/29 01:34:34;;;;;;;4.70;1.65;;;16.40;98.70;;;;;;2586438;54;20084;31
2022/07/29 01:37:12;;;;;;;3.90;1.60;;;16.40;98.80;;;;;;2604643;46;20904;31
2022/07/29 01:39:47;;;;;;;4.70;1.40;;;16.50;99.40;;;;;;2605423;46;20783;31
2022/07/29 01:42:25;;;;;;;2.85;1.48;;;16.40;99.10;;;;;;2586632;54;20896;31
2022/07/29 01:45:02;;;;;;;3.10;1.98;;;16.40;99.20;;;;;;2586455;54;20109;31
2022/07/29 01:47:36;;;;;;;6.10;1.60;;;16.30;99.70;;;;;;2702308;39;21085;31
2022/07/29 01:50:11;;;;;;;2.45;1.50;;;16.30;99.70;;;;;;2586340;54;20926;31
2022/07/29 01:52:47;;;;;;;5.85;1.73;;;16.30;99.40;;;;;;2586632;54;20759;31
2022/07/29 01:55:21;;;;;;;3.45;1.50;;;16.30;99.90;;;;;;2586285;54;20026;31
2022/07/29 01:57:56;;;;;;;4.60;1.60;;;16.20;99.90;;;;;;2586438;54;20038;31
2022/07/29 02:00:34;;;;;;;5.63;1.77;;;16.20;99.90;;;;;;2586375;54;20085;31
2022/07/29 02:03:12;;;;;;;4.20;1.30;;;16.10;99.90;;;;;;2604645;46;20858;31
2022/07/29 02:05:50;;;;;;;4.90;1.70;;;16.20;99.90;;;;;;2586519;54;20037;31
2022/07/29 02:08:29;;;;;;;5.60;1.58;;;16.10;99.90;;;;;;2604857;46;20766;31
2022/07/29 02:11:05;;;;;;;3.60;1.35;;;16.10;99.90;;;;;;2586362;54;20035;31
2022/07/29 02:13:40;;;;;;;3.40;1.60;;;16.00;99.90;;;;;;2585987;54;20037;31
2022/07/29 02:16:16;;;;;;;7.45;1.83;;;16.00;99.90;;;;;;2755040;31;21619;31
2022/07/29 02:18:51;;;;;;;4.20;1.63;;;15.90;99.90;;;;;;2586515;54;20502;31
2022/07/29 02:21:28;;;;;;;4.97;1.80;;;15.90;99.90;;;;;;2586216;54;20037;31
2022/07/29 02:24:01;;;;;;;4.33;1.83;;;15.80;99.90;;;;;;2586021;54;20027;31
2022/07/29 02:26:38;;;;;;;3.13;1.50;;;15.80;99.90;;;;;;2586378;54;20234;31
2022/07/29 02:29:12;;;;;;;4.30;1.50;;;15.80;99.90;;;;;;2586556;54;21168;31
2022/07/29 02:31:52;;;;;;;4.90;1.55;;;15.70;99.90;;;;;;2585405;54;20121;31
2022/07/29 02:34:27;;;;;;;5.25;1.77;;;15.70;99.90;;;;;;2586402;54;20945;31
2022/07/29 02:37:01;;;;;;;3.55;1.85;;;15.70;99.90;;;;;;2586462;54;20053;31
2022/07/29 02:39:36;;;;;;;4.07;1.52;;;15.60;99.90;;;;;;2586400;54;20140;31
2022/07/29 02:42:09;;;;;;;4.95;1.58;;;15.60;99.90;;;;;;2586310;54;20754;31
2022/07/29 02:44:44;;;;;;;4.60;1.83;;;15.60;99.90;;;;;;2604586;46;20953;31
2022/07/29 02:47:23;;;;;;;4.00;2.38;;;15.60;99.90;;;;;;2586269;54;20863;31
2022/07/29 02:50:00;;;;;;;5.50;2.20;;;15.50;99.90;;;;;;2586331;54;20886;31
2022/07/29 02:52:37;;;;;;;4.65;2.15;;;15.50;99.90;;;;;;2585806;54;20031;31
2022/07/29 02:55:16;;;;;;;5.10;1.90;;;15.40;99.90;;;;;;2586198;54;20034;31
2022/07/29 02:57:57;;;;;;;5.63;1.70;;;15.40;99.90;;;;;;2586252;54;20065;31
2022/07/29 03:00:32;;;;;;;7.28;2.20;;;15.40;99.90;;;;;;2586161;54;20309;31
2022/07/29 03:03:19;;;;;;;4.70;1.83;;;15.30;99.90;;;;;;2755159;31;21611;31
2022/07/29 03:05:51;;;;;;;7.03;2.40;;;15.30;99.90;;;;;;2586217;54;20917;31
2022/07/29 03:08:24;;;;;;;6.88;2.03;;;15.30;99.90;;;;;;2604265;46;20870;31
2022/07/29 03:10:57;;;;;;;3.43;1.80;;;15.30;99.90;;;;;;2585186;54;20851;31
2022/07/29 03:13:31;;;;;;;3.50;1.65;;;15.20;99.90;;;;;;2585205;54;20041;31
2022/07/29 03:16:05;;;;;;;4.03;1.70;;;15.30;99.90;;;;;;2698155;39;21282;31
2022/07/29 03:18:41;;;;;;;5.65;1.55;;;15.20;99.90;;;;;;2585023;54;20859;31
2022/07/29 03:21:17;;;;;;;7.10;2.30;;;15.30;99.90;;;;;;2585237;54;20037;31
2022/07/29 03:23:53;;;;;;;7.30;2.40;;;15.20;99.90;;;;;;2585836;54;20085;31
2022/07/29 03:26:32;;;;;;;5.47;2.00;;;15.20;99.90;;;;;;2605047;46;20974;31
2022/07/29 03:29:05;;;;;;;6.03;2.35;;;15.20;99.90;;;;;;2595946;46;21638;31
2022/07/29 03:31:39;;;;;;;5.57;2.20;;;15.10;99.90;;;;;;2586225;54;20030;31
2022/07/29 03:34:20;;;;;;;3.10;2.30;;;15.20;99.90;;;;;;2585963;54;21334;31
2022/07/29 03:36:59;;;;;;;4.87;2.20;;;15.30;99.90;;;;;;2604615;46;20902;31
2022/07/29 03:39:37;;;;;;;4.70;2.15;;;15.20;99.90;;;;;;2586326;54;20031;31
2022/07/29 03:42:13;;;;;;;4.53;2.30;;;15.20;99.90;;;;;;2586027;54;20742;31
2022/07/29 03:44:50;;;;;;;2.65;1.67;;;15.20;99.90;;;;;;2604728;47;20909;31
2022/07/29 03:47:25;;;;;;;5.50;2.00;;;15.20;99.90;;;;;;2585921;54;20165;31
2022/07/29 03:50:25;;;;;;;12.73;2.40;;;15.30;99.90;;;;;;2586050;54;21316;31
2022/07/29 03:52:58;;;;;;;4.67;1.90;;;15.30;99.90;;;;;;2586022;54;20077;31
2022/07/29 03:55:34;;;;;;;5.95;2.20;;;15.40;99.90;;;;;;2586050;54;20249;31
2022/07/29 03:58:10;;;;;;;7.47;2.80;;;15.50;99.90;;;;;;2585257;54;20848;31
2022/07/29 04:00:47;;;;;;;3.55;2.25;;;15.50;99.90;;;;;;2604457;47;20911;31
2022/07/29 04:03:25;;;;;;;6.95;2.30;;;15.70;99.90;;;;;;2586050;54;20900;31
2022/07/29 04:06:08;;;;;;;6.30;2.20;;;15.80;99.90;;;;;;2586125;54;20815;31
2022/07/29 04:08:47;;;;;;;4.85;1.80;;;15.80;99.90;;;;;;2586139;54;20867;31
2022/07/29 04:11:22;;;;;;;6.60;2.60;;;16.00;99.90;;;;;;2604564;47;20916;31
2022/07/29 04:13:57;;;;;;;7.77;2.30;;;16.10;99.90;;;;;;2585993;54;20121;31
2022/07/29 04:16:31;;;;;;;5.32;2.40;;;16.20;99.90;;;;;;2585044;54;20046;31
2022/07/29 04:19:07;;;;;;;7.50;2.00;;;16.30;99.90;;;;;;2586391;54;20029;31
2022/07/29 04:21:44;;;;;;;8.10;2.63;;;16.30;99.90;;;;;;2586835;54;20088;31
2022/07/29 04:24:18;;;;;;;5.40;2.35;;;16.50;99.90;;;;;;2605440;46;20908;31
2022/07/29 04:26:54;;;;;;;6.82;2.55;;;16.70;99.90;;;;;;2586746;54;20077;31
2022/07/29 04:29:30;;;;;;;9.57;3.05;;;16.90;99.90;;;;;;2585799;54;20037;31
2022/07/29 04:32:03;;;;;;;6.60;2.45;;;17.10;99.90;;;;;;2586883;54;20940;31
2022/07/29 04:34:38;;;;;;;7.22;2.78;;;17.30;99.90;;;;;;2586797;54;20030;31
2022/07/29 04:37:18;;;;;;;5.57;2.10;;;17.60;99.90;;;;;;2586598;54;20093;31
2022/07/29 04:39:54;;;;;;;10.40;3.80;;;17.80;99.90;;;;;;2586834;54;20145;31
2022/07/29 04:42:32;;;;;;;;;;;18.00;99.90;;;;;;2586852;54;20882;31
2022/07/29 04:45:10;;;;;;;4.30;2.30;;;18.10;99.90;;;;;;2586720;54;20756;31
2022/07/29 04:47:43;;;;;;;7.88;2.50;;;18.40;99.90;;;;;;2586581;54;20871;31
2022/07/29 04:50:23;;;;;;;5.88;2.70;;;18.60;99.90;;;;;;2586756;54;20085;31
2022/07/29 04:52:58;;;;;;;3.83;1.95;;;18.80;99.90;;;;;;2604935;46;20030;31
2022/07/29 04:55:32;;;;;;;5.50;2.00;;;19.20;99.90;;;;;;2586512;54;20031;31
2022/07/29 04:58:07;;;;;;;5.57;1.90;;;19.40;99.90;;;;;;2586942;54;20954;31
2022/07/29 05:00:43;;;;;;;12.70;2.67;;;19.60;99.90;;;;;;2585657;54;20919;31
2022/07/29 05:03:16;;;;;;;4.13;1.95;;;19.80;99.90;;;;;;2586847;54;20042;31
2022/07/29 05:05:52;;;;;;;6.80;2.75;;;19.80;99.90;;;;;;2585820;54;21559;31
2022/07/29 05:08:34;;;;;;;5.90;2.10;;;19.80;99.90;;;;;;2586520;54;20037;31
2022/07/29 05:11:09;;;;;;;7.28;2.10;;;19.80;99.90;;;;;;2586456;54;20807;31
2022/07/29 05:13:45;;;;;;;7.70;2.55;;;19.60;99.90;;;;;;2586595;54;20914;31
2022/07/29 05:16:21;;;;;;;5.40;2.28;;;19.50;99.90;;;;;;2586206;54;20827;31
2022/07/29 05:18:53;;;;;;;5.70;2.07;;;19.40;99.90;;;;;;2585631;54;20706;31
2022/07/29 05:21:27;;;;;;;3.85;2.05;;;19.40;99.90;;;;;;2585657;54;20061;31
2022/07/29 05:24:01;;;;;;;23.60;3.00;;;19.30;99.90;;;;;;2585615;54;20953;31
2022/07/29 05:26:34;;;;;;;4.00;1.90;;;19.30;99.90;;;;;;2585509;54;20027;31
2022/07/29 05:29:08;;;;;;;6.03;2.37;;;19.20;99.90;;;;;;2603651;46;20893;31
2022/07/29 05:32:04;;;;;;;6.10;2.20;;;19.20;99.90;;;;;;2586631;54;20060;31
2022/07/29 05:34:37;;;;;;;6.13;2.65;;;19.10;99.90;;;;;;2586667;54;21079;31
2022/07/29 05:37:24;;;;;;;6.82;2.20;;;19.10;99.90;;;;;;2586371;54;20026;31
2022/07/29 05:39:59;;;;;;;5.00;2.70;;;19.00;99.90;;;;;;2586494;54;20027;31
2022/07/29 05:42:36;;;;;;;4.75;1.95;;;19.00;99.90;;;;;;2586431;54;20057;31
2022/07/29 05:45:08;;;;;;;;;;;19.00;99.90;;;;;;2585936;54;19977;31
2022/07/29 05:47:45;;;;;;;5.43;1.80;;;18.90;99.90;;;;;;2604587;46;19961;31
2022/07/29 05:50:21;;;;;;;4.57;2.35;;;18.90;99.90;;;;;;2586461;54;20382;31
2022/07/29 05:52:58;;;;;;;6.60;2.13;;;19.00;99.90;;;;;;2586762;54;20108;31
2022/07/29 05:55:51;;;;;;;8.75;1.75;;;19.00;99.90;;;;;;2586331;54;20045;31
2022/07/29 05:58:29;;;;;;;5.10;2.03;;;19.20;99.90;;;;;;2586485;54;20054;31
2022/07/29 06:01:01;;;;;;;5.68;1.70;;;19.30;99.90;;;;;;2604704;46;20788;31
2022/07/29 06:03:37;;;;;;;9.57;1.98;;;19.50;99.90;;;;;;2586296;54;20030;31
2022/07/29 06:06:14;;;;;;;4.80;1.80;;;19.70;99.90;;;;;;2586674;54;20038;31
2022/07/29 06:08:49;;;;;;;6.38;1.88;;;19.70;99.90;;;;;;2586372;54;21528;31
2022/07/29 06:11:24;;;;;;;5.55;2.00;;;19.90;99.90;;;;;;2586338;54;20049;31
2022/07/29 06:13:59;;;;;;;12.25;2.65;;;20.20;99.90;;;;;;2585529;54;20597;31
2022/07/29 06:16:31;;;;;;;5.80;2.50;;;20.30;99.90;;;;;;2586202;54;20886;31
2022/07/29 06:19:06;;;;;;;7.53;3.22;;;20.60;99.90;;;;;;2586456;54;21643;31
2022/07/29 06:21:44;;;;;;;9.00;2.60;;;21.00;99.90;;;;;;2586148;54;20919;31
2022/07/29 06:24:20;;;;;;;4.95;2.28;;;21.20;99.90;;;;;;2586146;54;20030;31
2022/07/29 06:26:55;;;;;;;5.70;1.80;;;21.40;99.90;;;;;;2604920;46;20097;31
2022/07/29 06:29:32;;;;;;;5.50;1.80;;;21.40;99.90;;;;;;2586324;54;21505;31
2022/07/29 06:32:08;;;;;;;4.78;2.45;;;21.40;99.90;;;;;;2605120;46;20745;31
2022/07/29 06:34:44;;;;;;;4.82;1.85;;;21.50;99.90;;;;;;2586236;54;20056;31
2022/07/29 06:37:24;;;;;;;6.95;2.10;;;21.60;99.90;;;;;;2586389;54;20026;31
2022/07/29 06:42:46;;;;;;;6.72;1.52;;;22.10;99.90;;;;;;2586103;54;20774;31
2022/07/29 06:45:26;;;;;;;6.50;1.70;;;22.50;99.90;;;;;;2586332;54;20796;31
2022/07/29 06:48:01;;;;;;;5.13;1.77;;;22.50;99.90;;;;;;2586122;54;20037;31
2022/07/29 06:50:34;;;;;;;4.07;1.88;;;22.60;99.90;;;;;;2604728;46;20731;31
2022/07/29 06:53:09;;;;;;;4.15;1.30;;;22.50;99.90;;;;;;2586166;54;21543;31
2022/07/29 06:55:44;;;;;;;4.15;1.63;;;22.40;99.90;;;;;;2586389;54;20089;31
2022/07/29 06:58:21;;;;;;;6.05;1.13;;;22.50;99.90;;;;;;2586444;54;20851;31
2022/07/29 07:01:05;;;;;;;3.65;1.30;;;22.60;99.90;;;;;;2586311;54;20986;31
2022/07/29 07:03:39;;;;;;;4.10;2.00;;;22.70;99.90;;;;;;2604704;46;20030;31
2022/07/29 07:06:13;;;;;;;5.60;1.70;;;22.80;99.90;;;;;;2586438;54;20057;31
2022/07/29 07:08:48;;;;;;;3.93;1.50;;;22.80;99.90;;;;;;2604253;46;21272;31
2022/07/29 07:11:22;;;;;;;2.05;1.02;;;22.80;99.90;;;;;;2586301;54;20747;31
2022/07/29 07:13:56;;;;;;;3.90;1.50;;;22.90;99.90;;;;;;2604471;46;20030;31
2022/07/29 07:16:37;;;;;;;9.27;2.17;;;22.80;99.90;;;;;;2702061;39;20400;31
2022/07/29 07:19:11;;;;;;;;;;;22.80;99.90;;;;;;2683361;39;20497;31
2022/07/29 07:21:47;;;;;;;11.45;2.13;;;22.80;99.90;;;;;;2586113;54;20715;31
2022/07/29 07:24:20;;;;;;;4.23;1.63;;;22.80;99.90;;;;;;2585266;54;20056;31
2022/07/29 07:26:55;;;;;;;2.97;1.33;;;23.10;99.90;;;;;;2586166;54;20038;31
2022/07/29 07:29:28;;;;;;;3.95;1.40;;;23.10;99.60;;;;;;2586030;54;20030;31
2022/07/29 07:32:06;;;;;;;3.80;1.50;;;23.20;99.90;;;;;;2586231;54;20888;31
2022/07/29 07:34:42;;;;;;;5.32;1.23;;;23.30;99.50;;;;;;2586474;54;20744;31
2022/07/29 07:37:19;;;;;;;5.45;1.38;;;23.20;99.10;;;;;;2586068;54;20770;31
2022/07/29 07:39:53;;;;;;;3.00;0.90;;;23.30;99.30;;;;;;2586217;54;20875;31
2022/07/29 07:42:28;;;;;;;4.22;1.20;;;23.30;99.40;;;;;;2586054;54;20031;31
2022/07/29 07:45:05;;;;;;;5.50;1.63;;;23.40;99.70;;;;;;2585343;54;20863;31
2022/07/29 07:47:54;;;;;;;2.80;1.90;;;23.50;99.10;;;;;;2586033;54;20060;31
2022/07/29 07:50:33;;;;;;;8.50;2.17;;;23.50;99.20;;;;;;2586221;54;20883;31
2022/07/29 07:53:08;;;;;;;3.47;1.60;;;23.50;99.30;;;;;;2586458;54;20045;31
2022/07/29 07:55:44;;;;;;;4.28;1.40;;;23.50;98.90;;;;;;2605603;46;20038;31
2022/07/29 07:58:38;;;;;;;3.25;1.00;;;23.40;98.90;;;;;;2605215;46;20026;31
2022/07/29 08:01:13;;;;;;;6.22;1.27;;;23.40;99.10;;;;;;2587227;54;20144;31
2022/07/29 08:03:51;;;;;;;7.70;1.30;;;23.50;99.30;;;;;;2586847;54;20030;31
2022/07/29 08:06:30;;;;;;;3.53;1.23;;;23.60;99.20;;;;;;2586968;54;20842;31
2022/07/29 08:09:02;;;;;;;2.40;1.27;;;23.60;99.10;;;;;;2587007;54;20909;31
2022/07/29 08:12:02;;;;;;;4.43;1.30;;;23.90;99.30;;;;;;2587057;54;20851;31
2022/07/29 08:14:34;;;;;;;4.65;1.40;;;24.10;99.00;;;;;;2586969;54;21196;31
2022/07/29 08:17:08;;;;;;;4.63;1.45;;;24.40;98.30;;;;;;2604356;46;20921;31
2022/07/29 08:19:48;;;;;;;3.95;1.20;;;24.60;98.40;;;;;;2586666;54;20886;31
2022/07/29 08:22:23;;;;;;;4.28;1.80;;;24.80;97.70;;;;;;2605510;46;20030;31
2022/07/29 08:24:58;;;;;;;4.68;1.50;;;24.90;97.50;;;;;;2586995;54;20894;31
2022/07/29 08:27:35;;;;;;;3.17;1.60;;;25.00;96.90;;;;;;2587088;54;20069;31
2022/07/29 08:30:20;;;;;;;10.03;1.80;;;25.10;97.50;;;;;;2586751;54;20897;31
2022/07/29 08:32:58;;;;;;;2.78;1.60;;;25.20;96.60;;;;;;2605338;46;20034;31
2022/07/29 08:35:36;;;;;;;5.13;1.50;;;25.30;96.80;;;;;;2605279;46;20958;31
2022/07/29 08:38:14;;;;;;;4.60;1.40;;;25.20;97.00;;;;;;2586824;54;20847;31
2022/07/29 08:40:49;;;;;;;5.25;1.80;;;25.20;96.70;;;;;;2684737;39;20365;31
2022/07/29 08:43:24;;;;;;;3.40;1.53;;;25.20;96.90;;;;;;2585952;54;20038;31
2022/07/29 08:46:01;;;;;;;3.97;1.27;;;25.30;96.90;;;;;;2586049;54;20216;31
2022/07/29 08:48:37;;;;;;;6.97;1.23;;;25.50;97.00;;;;;;2684588;39;21620;31
2022/07/29 08:51:15;;;;;;;;;;;25.60;96.80;;;;;;2586164;54;20509;31
2022/07/29 08:53:49;;;;;;;5.50;1.60;;;25.90;96.50;;;;;;2586800;54;20744;31
2022/07/29 08:56:24;;;;;;;7.03;1.77;;;26.00;96.10;;;;;;2586879;54;20036;31
2022/07/29 08:59:00;;;;;;;3.10;1.20;;;26.20;96.10;;;;;;2586683;54;20640;31
2022/07/29 09:01:42;;;;;;;3.90;1.27;;;26.40;96.00;;;;;;2586992;54;20779;31
2022/07/29 09:04:18;;;;;;;3.17;1.17;;;26.40;95.50;;;;;;2585792;54;20030;31
2022/07/29 09:06:55;;;;;;;4.97;1.30;;;26.40;95.60;;;;;;2586679;54;20030;31
2022/07/29 09:09:29;;;;;;;7.22;1.38;;;26.40;95.30;;;;;;2586952;54;20879;31
2022/07/29 09:12:03;;;;;;;5.55;1.40;;;26.40;95.30;;;;;;2586350;54;20085;31
2022/07/29 09:14:38;;;;;;;2.85;1.25;;;26.30;95.10;;;;;;2586413;54;20106;31
2022/07/29 09:17:12;;;;;;;5.00;1.33;;;26.20;95.10;;;;;;2605477;46;20908;31
2022/07/29 09:19:49;;;;;;;3.15;1.25;;;26.20;95.00;;;;;;2586633;54;20077;31
2022/07/29 09:22:33;;;;;;;4.18;1.45;;;26.20;95.10;;;;;;2586789;54;20027;31
2022/07/29 09:25:16;;;;;;;3.70;1.40;;;26.10;95.00;;;;;;2586470;54;20041;31
2022/07/29 09:27:52;;;;;;;3.42;1.52;;;26.10;95.10;;;;;;2586890;54;20853;31
2022/07/29 09:30:30;;;;;;;4.80;1.40;;;26.00;95.30;;;;;;2586911;54;20053;31
2022/07/29 09:33:07;;;;;;;2.50;1.10;;;26.00;95.40;;;;;;2586775;54;20847;31
2022/07/29 09:35:41;;;;;;;5.20;1.40;;;26.00;95.00;;;;;;2586689;54;20850;31
2022/07/29 09:38:31;;;;;;;3.93;1.50;;;26.00;95.20;;;;;;2586596;54;20027;31
2022/07/29 09:41:08;;;;;;;4.55;1.45;;;26.00;95.30;;;;;;2605247;46;20054;31
2022/07/29 09:43:43;;;;;;;1.77;0.90;;;26.00;95.20;;;;;;2703284;39;21451;31
2022/07/29 09:46:17;;;;;;;5.37;1.17;;;26.00;94.90;;;;;;2600719;46;20038;31
2022/07/29 09:49:17;;;;;;;2.73;1.17;;;26.00;94.90;;;;;;2586465;54;20046;31
2022/07/29 09:51:50;;;;;;;6.15;1.40;;;26.00;94.50;;;;;;2605307;46;20030;31
2022/07/29 09:54:29;;;;;;;3.55;1.45;;;26.00;94.60;;;;;;2586590;54;20030;31
2022/07/29 09:57:04;;;;;;;7.75;1.30;;;26.00;94.70;;;;;;2586669;54;20026;31
2022/07/29 09:59:42;;;;;;;4.57;1.00;;;26.00;94.90;;;;;;2586664;54;21412;31
2022/07/29 10:02:22;;;;;;;2.75;1.15;;;26.10;94.80;;;;;;2586617;54;20060;31
2022/07/29 10:05:04;;;;;;;7.00;1.45;;;26.30;95.00;;;;;;2586621;54;20030;31
2022/07/29 10:07:57;;;;;;;4.28;1.30;;;26.50;94.70;;;;;;2586577;54;20085;31
2022/07/29 10:10:37;;;;;;;4.45;1.65;;;26.70;94.90;;;;;;2586684;54;20030;31
2022/07/29 10:13:13;;;;;;;3.20;1.00;;;26.80;94.10;;;;;;2586481;54;20052;31
2022/07/29 10:15:50;;;;;;;5.43;1.35;;;27.00;94.40;;;;;;2604824;46;20053;31
2022/07/29 10:18:24;;;;;;;5.03;1.50;;;27.10;93.80;;;;;;2684393;39;21538;31
2022/07/29 10:21:00;;;;;;;7.95;1.60;;;27.10;93.40;;;;;;2586361;54;20867;31
2022/07/29 10:23:35;;;;;;;3.50;1.30;;;27.30;93.70;;;;;;2586720;54;20815;31
2022/07/29 10:26:25;;;;;;;2.70;1.15;;;27.40;93.70;;;;;;2586325;54;20037;31
2022/07/29 10:29:03;;;;;;;3.65;1.35;;;27.40;93.20;;;;;;2585624;54;20060;31
2022/07/29 10:31:53;;;;;;;5.85;1.40;;;27.40;93.40;;;;;;2604988;46;20034;31
2022/07/29 10:34:36;;;;;;;4.95;1.20;;;27.40;92.80;;;;;;2604940;46;20030;31
2022/07/29 10:37:14;;;;;;;3.90;1.35;;;27.40;92.80;;;;;;2586555;54;20046;31
2022/07/29 10:39:55;;;;;;;6.00;1.35;;;27.30;93.00;;;;;;2586278;54;20633;31
2022/07/29 10:42:31;;;;;;;4.60;1.50;;;27.40;92.70;;;;;;2604492;46;21172;31
2022/07/29 10:45:05;;;;;;;4.75;1.35;;;27.50;92.40;;;;;;2604899;46;20898;31
2022/07/29 10:47:43;;;;;;;2.90;1.00;;;27.50;92.70;;;;;;2585512;54;20777;31
2022/07/29 10:50:16;;;;;;;5.23;1.50;;;27.50;92.30;;;;;;2585509;54;20045;31
2022/07/29 10:52:59;;;;;;;9.45;1.20;;;27.40;92.10;;;;;;2586352;54;20307;31
2022/07/29 10:55:42;;;;;;;6.20;1.65;;;27.40;92.40;;;;;;2586703;54;20837;31
2022/07/29 10:58:20;;;;;;;7.47;1.65;;;27.40;92.30;;;;;;2586496;54;20057;31
2022/07/29 11:00:52;;;;;;;3.53;1.30;;;27.50;92.60;;;;;;2586322;54;21624;31
2022/07/29 11:03:45;;;;;;;5.80;1.55;;;27.50;92.50;;;;;;2586441;54;20034;31
2022/07/29 11:06:25;;;;;;;5.60;1.40;;;27.60;92.10;;;;;;2586163;54;20992;31
2022/07/29 11:09:02;;;;;;;6.43;1.45;;;27.70;92.20;;;;;;2604657;46;20093;31
2022/07/29 11:11:40;;;;;;;4.53;1.13;;;27.70;92.00;;;;;;2585702;54;20848;31
2022/07/29 11:15:08;;;;;;;10.80;1.85;;;27.70;91.90;;;;;;2586133;54;20030;31
2022/07/29 11:18:12;;;;;;;2.33;1.17;;;27.60;92.00;;;;;;2586338;54;20032;31
2022/07/29 11:20:56;;;;;;;2.95;1.20;;;27.60;92.50;;;;;;2586251;54;20842;31
2022/07/29 11:23:31;;;;;;;3.13;1.33;;;27.60;92.10;;;;;;2585191;54;20030;31
2022/07/29 11:26:41;;;;;;;3.97;1.50;;;27.60;92.10;;;;;;2586397;54;20892;31
2022/07/29 11:31:50;;;;;;;8.38;1.90;;;27.50;92.10;;;;;;2585265;54;20481;31
2022/07/29 11:34:30;;;;;;;5.05;2.45;;;27.50;91.90;;;;;;2585298;54;20832;31
2022/07/29 11:37:24;;;;;;;4.20;1.60;;;27.50;92.10;;;;;;2585017;54;20870;31
2022/07/29 11:40:15;;;;;;;5.68;1.38;;;27.40;91.90;;;;;;2585188;54;20886;31
2022/07/29 11:42:52;;;;;;;6.65;1.63;;;27.40;92.10;;;;;;2586390;54;21092;31
2022/07/29 11:48:19;;;;;;;3.50;1.40;;;27.50;92.10;;;;;;2586479;54;20881;31
2022/07/29 11:51:11;;;;;;;3.38;1.40;;;27.50;92.10;;;;;;2604366;47;20697;31
2022/07/29 11:53:49;;;;;;;11.25;2.15;;;27.50;92.00;;;;;;2604955;47;20034;31
2022/07/29 11:56:24;;;;;;;4.30;1.85;;;27.50;91.80;;;;;;2585877;54;20744;31
2022/07/29 11:59:09;;;;;;;3.05;1.70;;;27.50;92.30;;;;;;2586373;54;20034;31
2022/07/29 12:01:55;;;;;;;4.20;1.60;;;27.50;92.30;;;;;;2586154;54;20931;31
2022/07/29 12:04:55;;;;;;;6.65;1.95;;;27.60;92.50;;;;;;2586214;54;20033;31
2022/07/29 12:07:33;;;;;;;5.20;1.60;;;27.60;92.50;;;;;;2586304;54;20979;31
2022/07/29 12:10:08;;;;;;;3.70;2.00;;;27.70;92.90;;;;;;2585180;54;20028;31
2022/07/29 12:12:54;;;;;;;4.65;1.85;;;27.60;92.70;;;;;;2586172;54;20105;31
2022/07/29 12:15:29;;;;;;;2.50;1.70;;;27.60;92.50;;;;;;2684008;39;20525;31
2022/07/29 12:18:19;;;;;;;5.00;1.90;;;27.70;92.60;;;;;;2586018;54;20847;31
2022/07/29 12:21:03;;;;;;;4.03;1.40;;;27.80;92.80;;;;;;2586410;54;20921;31
2022/07/29 12:23:40;;;;;;;6.35;1.75;;;27.80;92.70;;;;;;2585307;54;20894;31
2022/07/29 12:26:14;;;;;;;2.65;1.65;;;27.80;92.50;;;;;;2586005;54;20030;31
2022/07/29 12:28:59;;;;;;;4.83;1.50;;;27.80;92.30;;;;;;2586006;54;20080;31
2022/07/29 12:31:36;;;;;;;2.80;1.52;;;27.80;92.40;;;;;;2586168;54;21176;31
2022/07/29 12:34:18;;;;;;;6.70;1.90;;;27.70;92.20;;;;;;2702415;39;21565;31
2022/07/29 12:36:53;;;;;;;6.70;2.00;;;27.70;92.60;;;;;;2585235;54;20038;31
2022/07/29 12:39:29;;;;;;;7.20;1.65;;;27.80;92.60;;;;;;2585471;54;20037;31
2022/07/29 12:42:13;;;;;;;2.60;1.83;;;27.80;92.20;;;;;;2585833;54;20026;31
2022/07/29 12:44:51;;;;;;;5.20;1.83;;;27.70;92.30;;;;;;2586636;54;20081;31
2022/07/29 12:47:25;;;;;;;2.90;1.55;;;27.70;92.50;;;;;;2586961;54;20859;31
2022/07/29 12:50:11;;;;;;;4.35;1.55;;;27.80;92.50;;;;;;2585933;54;20893;31
2022/07/29 12:52:46;;;;;;;3.42;2.25;;;27.80;92.70;;;;;;2586816;54;20601;31
2022/07/29 12:55:42;;;;;;;9.93;1.90;;;27.90;92.40;;;;;;2586763;54;20842;31
2022/07/29 12:58:18;;;;;;;6.50;1.85;;;27.90;92.40;;;;;;2587053;54;20084;31
2022/07/29 13:00:54;;;;;;;;;;;27.80;92.40;;;;;;2586065;54;20062;31
2022/07/29 13:03:56;;;;;;;8.50;1.80;;;27.90;92.10;;;;;;2586819;54;20651;31
2022/07/29 13:09:39;;;;;;;6.40;1.70;;;27.80;92.60;;;;;;2586416;54;20795;31
2022/07/29 13:12:16;;;;;;;7.70;2.10;;;27.90;92.40;;;;;;2587065;54;20026;31
2022/07/29 13:14:50;;;;;;;4.25;1.50;;;27.80;92.50;;;;;;2586548;54;20030;31
2022/07/29 13:17:23;;;;;;;4.45;1.65;;;27.90;92.70;;;;;;2585810;54;20101;31
2022/07/29 13:20:12;;;;;;;5.90;1.73;;;28.00;92.40;;;;;;2586907;54;20034;31
2022/07/29 13:22:50;;;;;;;6.60;1.80;;;28.00;91.80;;;;;;2587003;54;20765;31
2022/07/29 13:25:28;;;;;;;3.20;2.40;;;27.90;92.00;;;;;;2586686;54;20895;31
2022/07/29 13:28:08;;;;;;;5.07;1.67;;;27.90;92.10;;;;;;2605196;46;20969;31
2022/07/29 13:30:48;;;;;;;3.85;2.20;;;27.90;92.50;;;;;;2586825;54;20034;31
2022/07/29 13:33:26;;;;;;;12.40;2.70;;;27.80;92.50;;;;;;2586612;54;20877;31
2022/07/29 13:36:02;;;;;;;5.10;2.13;;;27.80;92.60;;;;;;2605326;46;20852;31
2022/07/29 13:38:36;;;;;;;6.15;2.40;;;27.80;92.70;;;;;;2585840;54;20306;31
2022/07/29 13:41:12;;;;;;;6.10;2.10;;;27.70;92.80;;;;;;2586700;54;20960;31
2022/07/29 13:43:49;;;;;;;4.60;2.13;;;27.70;93.00;;;;;;2586631;54;20037;31
2022/07/29 13:46:22;;;;;;;10.65;2.22;;;27.60;92.70;;;;;;2586537;54;20871;31
2022/07/29 13:48:57;;;;;;;5.72;2.08;;;27.50;92.80;;;;;;2586129;54;20085;31
2022/07/29 13:51:33;;;;;;;4.00;1.90;;;27.40;92.90;;;;;;2586071;54;20591;31
2022/07/29 13:54:06;;;;;;;3.75;2.20;;;27.50;93.00;;;;;;2605013;46;20030;31
2022/07/29 13:56:40;;;;;;;7.27;2.30;;;27.50;92.80;;;;;;2585854;54;20805;31
2022/07/29 13:59:18;;;;;;;4.45;1.95;;;27.40;92.90;;;;;;2585767;54;19950;31
2022/07/29 14:01:52;;;;;;;9.90;1.92;;;27.50;93.50;;;;;;2585523;54;20030;31
2022/07/29 14:04:27;;;;;;;5.75;1.95;;;27.60;93.50;;;;;;2586406;54;20748;31
2022/07/29 14:07:02;;;;;;;5.75;1.80;;;27.60;92.80;;;;;;2586369;54;20048;31